Time;durP1;ratioP1;P1;durP2;ratioP2;P2;SDS_P1;SDS_P2;PMS_P1;PMS_P2;Temp;Humidity;BMP_temperature;BMP_pressure;BME280_temperature;BME280_humidity;BME280_pressure;Samples;Min_cycle;Max_cycle;Signal;HPM_P1;HPM_P2
2023/02/19 00:01:41;;;;;;;6.22;4.82;;;;;;;8.08;100.00;100730.22;4909195;29;20044;-79
2023/02/19 00:04:15;;;;;;;9.13;4.55;;;;;;;8.08;100.00;100732.84;4912850;29;20039;-79
2023/02/19 00:06:44;;;;;;;11.73;5.90;;;;;;;8.10;100.00;100725.91;4895161;29;20048;-77
2023/02/19 00:09:13;;;;;;;7.30;4.22;;;;;;;8.11;100.00;100732.88;4909515;29;20076;-79
2023/02/19 00:11:40;;;;;;;7.10;3.60;;;;;;;8.15;100.00;100731.09;4902003;29;20047;-78
2023/02/19 00:14:07;;;;;;;7.82;4.20;;;;;;;8.18;100.00;100723.31;4909436;29;20070;-77
2023/02/19 00:16:37;;;;;;;7.10;4.68;;;;;;;8.18;100.00;100707.66;4923033;29;20149;-77
2023/02/19 00:19:09;;;;;;;5.68;4.10;;;;;;;8.16;100.00;100696.34;4914912;29;20487;-77
2023/02/19 00:21:35;;;;;;;7.97;4.85;;;;;;;8.17;100.00;100691.13;4910641;29;20106;-77
2023/02/19 00:24:05;;;;;;;9.30;4.70;;;;;;;8.15;100.00;100694.59;4914969;29;20401;-78
2023/02/19 00:26:33;;;;;;;7.65;4.25;;;;;;;8.16;100.00;100693.75;4913887;29;20059;-80
2023/02/19 00:29:01;;;;;;;15.93;5.28;;;;;;;8.21;100.00;100692.00;4895380;29;20074;-79
2023/02/19 00:31:31;;;;;;;8.32;4.53;;;;;;;8.24;100.00;100694.66;4913136;29;20067;-80
2023/02/19 00:34:02;;;;;;;7.90;4.47;;;;;;;8.24;100.00;100697.25;4915837;29;20391;-79
2023/02/19 00:36:29;;;;;;;11.77;4.55;;;;;;;8.28;100.00;100694.63;4914696;29;20154;-78
2023/02/19 00:38:56;;;;;;;7.80;3.78;;;;;;;8.30;100.00;100688.56;4915911;29;20051;-78
2023/02/19 00:41:24;;;;;;;11.15;4.38;;;;;;;8.33;100.00;100684.22;4926114;29;20044;-81
2023/02/19 00:43:58;;;;;;;13.77;5.70;;;;;;;8.30;100.00;100676.38;4918574;29;20434;-77
2023/02/19 00:46:28;;;;;;;12.65;5.97;;;;;;;8.20;100.00;100667.69;4898398;29;20047;-77
2023/02/19 00:48:56;;;;;;;13.57;6.60;;;;;;;8.12;100.00;100664.19;4933970;29;20162;-80
2023/02/19 00:51:26;;;;;;;10.95;7.10;;;;;;;8.01;100.00;100651.13;4913116;29;20032;-78
2023/02/19 00:53:53;;;;;;;10.05;6.72;;;;;;;7.92;100.00;100645.91;4917452;29;20048;-77
2023/02/19 00:56:20;;;;;;;16.65;7.82;;;;;;;7.87;100.00;100647.63;4909169;29;20060;-78
2023/02/19 00:58:48;;;;;;;12.50;7.60;;;;;;;7.85;100.00;100644.16;4894430;29;20510;-80
2023/02/19 01:01:16;;;;;;;11.75;8.20;;;;;;;7.83;100.00;100636.34;4911647;29;20054;-80
2023/02/19 01:03:43;;;;;;;13.55;8.35;;;;;;;7.82;100.00;100638.94;4907412;29;20443;-80
2023/02/19 01:06:14;;;;;;;15.63;10.13;;;;;;;7.82;100.00;100631.97;4910806;29;20531;-82
2023/02/19 01:08:41;;;;;;;18.35;10.30;;;;;;;7.83;100.00;100633.72;4898634;29;20056;-77
2023/02/19 01:11:09;;;;;;;18.00;10.32;;;;;;;7.85;100.00;100641.53;4893145;29;20059;-78
2023/02/19 01:13:36;;;;;;;17.23;11.15;;;;;;;7.83;100.00;100648.50;4921845;29;20126;-78
2023/02/19 01:16:19;;;;;;;15.40;10.55;;;;;;;7.81;100.00;100656.31;4917788;29;20044;-77
2023/02/19 01:18:46;;;;;;;20.97;11.77;;;;;;;7.79;100.00;100652.84;4911575;29;20052;-77
2023/02/19 01:21:20;;;;;;;19.50;12.38;;;;;;;7.81;100.00;100661.53;4910935;29;20139;-76
2023/02/19 01:23:49;;;;;;;;;;;;;;;7.78;100.00;100674.53;4913217;29;20291;-78
2023/02/19 01:26:22;;;;;;;24.00;12.57;;;;;;;7.76;100.00;100690.19;4899114;29;19933;-77
2023/02/19 01:28:49;;;;;;;14.45;9.50;;;;;;;7.76;100.00;100666.72;4910605;29;20818;-76
2023/02/19 01:31:19;;;;;;;17.08;8.02;;;;;;;7.72;100.00;100678.00;4914232;29;20129;-79
2023/02/19 01:33:50;;;;;;;10.77;7.53;;;;;;;7.58;100.00;100674.50;4915148;29;20665;-77
2023/02/19 01:36:18;;;;;;;6.70;4.32;;;;;;;7.47;100.00;100665.75;4915496;29;20044;-78
2023/02/19 01:38:45;;;;;;;5.95;2.75;;;;;;;7.34;100.00;100662.22;4922217;29;20443;-79
2023/02/19 01:41:21;;;;;;;4.60;2.78;;;;;;;7.22;100.00;100658.72;4925747;29;20052;-79
2023/02/19 01:44:27;;;;;;;3.28;2.22;;;;;;;7.14;100.00;100651.72;4920241;29;20062;-78
2023/02/19 01:46:56;;;;;;;3.78;1.77;;;;;;;7.09;100.00;100657.78;4853905;29;20072;-77
2023/02/19 01:49:36;;;;;;;1.13;1.13;;;;;;;7.03;100.00;100651.69;4841292;29;20076;-80
2023/02/19 01:52:17;;;;;;;1.17;1.08;;;;;;;6.97;100.00;100654.25;4893031;29;20056;-79
2023/02/19 01:54:45;;;;;;;2.38;0.90;;;;;;;6.91;100.00;100647.25;4909057;29;20095;-79
2023/02/19 01:57:24;;;;;;;1.10;1.00;;;;;;;6.86;100.00;100642.03;4912569;29;20402;-78
2023/02/19 01:59:55;;;;;;;0.65;0.65;;;;;;;6.78;100.00;100628.97;4928843;29;20052;-79
2023/02/19 02:02:27;;;;;;;0.95;0.68;;;;;;;6.74;100.00;100631.53;4913741;29;20084;-77
2023/02/19 02:04:55;;;;;;;1.95;0.52;;;;;;;6.69;100.00;100633.22;4913143;29;20071;-80
2023/02/19 02:10:22;;;;;;;;;;;;;;;6.63;100.00;100628.88;4918004;29;20048;-77
2023/02/19 02:12:52;;;;;;;3.55;0.52;;;;;;;6.60;100.00;100626.25;4909174;29;19927;-77
2023/02/19 02:15:19;;;;;;;1.85;0.55;;;;;;;6.57;100.00;100628.81;4912481;29;20102;-78
2023/02/19 02:18:25;;;;;;;0.70;0.70;;;;;;;6.56;100.00;100630.56;4920177;29;21013;-76
2023/02/19 02:21:29;;;;;;;1.35;0.95;;;;;;;6.53;100.00;100620.16;4909537;29;20047;-76
2023/02/19 02:24:42;;;;;;;0.93;0.93;;;;;;;6.55;100.00;100627.94;4904235;29;20067;-77
2023/02/19 02:27:30;;;;;;;2.90;1.15;;;;;;;6.54;100.00;100616.66;4928826;29;20326;-79
2023/02/19 02:30:28;;;;;;;1.23;1.05;;;;;;;6.54;100.00;100616.66;4913857;29;20168;-77
2023/02/19 02:33:39;;;;;;;1.45;0.90;;;;;;;6.56;100.00;100614.09;4911242;29;20052;-78
2023/02/19 02:36:23;;;;;;;2.53;1.38;;;;;;;6.57;100.00;100614.09;4912634;29;20044;-78
2023/02/19 02:38:51;;;;;;;3.25;2.30;;;;;;;6.58;100.00;100617.56;4934104;29;20052;-77
2023/02/19 02:41:18;;;;;;;4.32;2.58;;;;;;;6.62;100.00;100619.31;4919610;29;20036;-77
2023/02/19 02:43:45;;;;;;;4.32;2.10;;;;;;;6.64;100.00;100620.22;4917598;29;20052;-78
2023/02/19 02:46:13;;;;;;;3.13;2.22;;;;;;;6.69;100.00;100618.50;4938319;29;20051;-79
2023/02/19 02:48:46;;;;;;;8.10;3.60;;;;;;;6.73;100.00;100617.66;4934104;29;20514;-77
2023/02/19 02:51:30;;;;;;;6.32;4.25;;;;;;;6.84;100.00;100607.31;4912311;29;20068;-77
2023/02/19 02:57:08;;;;;;;9.77;6.82;;;;;;;7.00;100.00;100596.97;4927688;29;20042;-78
2023/02/19 02:59:39;;;;;;;17.13;7.45;;;;;;;7.07;100.00;100601.38;4900191;29;20067;-77
2023/02/19 03:02:13;;;;;;;11.73;7.72;;;;;;;7.15;100.00;100594.44;4932549;29;20039;-81
2023/02/19 03:07:54;;;;;;;15.20;8.68;;;;;;;7.26;100.00;100597.97;4933488;29;20050;-76
2023/02/19 03:10:31;;;;;;;13.30;8.35;;;;;;;7.32;100.00;100591.06;4929804;29;20062;-76
2023/02/19 03:21:28;;;;;;;9.43;5.38;;;;;;;7.44;100.00;100625.81;4909171;29;20043;-78
2023/02/19 03:26:44;;;;;;;2.53;2.00;;;;;;;7.07;100.00;100658.63;4916989;29;20043;-80
2023/02/19 03:29:25;;;;;;;1.67;0.98;;;;;;;6.83;100.00;100669.75;4912115;29;20031;-78
2023/02/19 03:32:02;;;;;;;1.55;0.98;;;;;;;6.59;100.00;100677.38;4925327;29;20052;-77
2023/02/19 03:34:35;;;;;;;1.30;0.88;;;;;;;6.44;100.00;100661.66;4916958;29;20055;-79
2023/02/19 03:37:30;;;;;;;0.68;0.30;;;;;;;6.24;100.00;100669.28;4900736;29;20047;-78
2023/02/19 03:39:57;;;;;;;0.75;0.75;;;;;;;5.99;100.00;100666.47;4919761;29;20110;-82
2023/02/19 03:42:58;;;;;;;0.50;0.50;;;;;;;5.85;100.00;100673.22;4916085;29;20055;-81
2023/02/19 03:45:51;;;;;;;0.70;0.70;;;;;;;5.73;100.00;100681.75;4916441;29;20044;-81
2023/02/19 03:48:34;;;;;;;0.40;0.40;;;;;;;5.74;100.00;100688.69;4915404;29;20143;-80
2023/02/19 03:51:30;;;;;;;0.98;0.50;;;;;;;5.72;100.00;100690.38;4913827;29;20059;-79
2023/02/19 03:54:11;;;;;;;0.52;0.40;;;;;;;5.63;100.00;100688.53;4912353;29;20044;-78
2023/02/19 03:56:52;;;;;;;0.90;0.30;;;;;;;5.56;100.00;100697.13;4915773;29;20063;-79
2023/02/19 03:59:43;;;;;;;0.50;0.38;;;;;;;5.52;100.00;100698.81;4917162;29;20048;-80
2023/02/19 04:02:15;;;;;;;0.43;0.43;;;;;;;5.50;100.00;100699.63;4899026;29;20482;-80
2023/02/19 04:04:56;;;;;;;0.35;0.35;;;;;;;5.43;100.00;100699.56;4917849;29;20071;-79
2023/02/19 04:07:23;;;;;;;0.68;0.50;;;;;;;5.37;100.00;100711.59;4917551;29;20086;-81
2023/02/19 04:09:51;;;;;;;0.63;0.35;;;;;;;5.32;100.00;100723.63;4900669;29;20099;-77
2023/02/19 04:12:19;;;;;;;0.50;0.32;;;;;;;5.24;100.00;100710.53;4921863;29;20075;-78
2023/02/19 04:14:53;;;;;;;3.30;0.22;;;;;;;5.27;100.00;100727.03;4912865;29;20522;-78
2023/02/19 04:17:31;;;;;;;0.68;0.55;;;;;;;5.29;100.00;100725.34;4924467;29;20616;-80
2023/02/19 04:20:07;;;;;;;0.35;0.35;;;;;;;5.26;100.00;100738.25;4931891;29;20039;-78
2023/02/19 04:22:36;;;;;;;0.55;0.55;;;;;;;5.23;100.00;100745.16;4926375;29;20758;-78
2023/02/19 04:25:03;;;;;;;0.30;0.30;;;;;;;5.23;100.00;100747.75;4904591;29;20102;-80
2023/02/19 04:27:33;;;;;;;0.38;0.38;;;;;;;5.19;100.00;100765.00;4915582;29;20044;-78
2023/02/19 04:30:00;;;;;;;0.50;0.50;;;;;;;5.16;100.00;100764.06;4918794;29;20530;-79
2023/02/19 04:32:26;;;;;;;0.30;0.30;;;;;;;5.11;100.00;100766.59;4920241;29;20039;-78
2023/02/19 04:34:53;;;;;;;1.85;0.30;;;;;;;5.08;100.00;100776.94;4913084;29;20055;-78
2023/02/19 04:37:19;;;;;;;0.50;0.38;;;;;;;5.09;100.00;100787.31;4899127;29;20592;-78
2023/02/19 04:39:46;;;;;;;0.65;0.47;;;;;;;5.09;100.00;100776.09;4915322;29;20047;-78
2023/02/19 04:42:12;;;;;;;0.50;0.50;;;;;;;5.07;100.00;100776.06;4899911;29;20047;-77
2023/02/19 04:44:38;;;;;;;0.50;0.38;;;;;;;5.02;100.00;100777.72;4912691;29;20052;-78
2023/02/19 04:47:05;;;;;;;0.50;0.47;;;;;;;5.01;100.00;100795.88;4930509;29;20059;-79
2023/02/19 04:49:32;;;;;;;0.65;0.45;;;;;;;5.01;100.00;100794.13;4927281;29;20543;-80
2023/02/19 04:51:58;;;;;;;0.38;0.30;;;;;;;4.94;100.00;100803.53;4910842;29;20044;-81
2023/02/19 04:54:24;;;;;;;0.10;0.10;;;;;;;4.92;100.00;100809.53;4917483;29;20052;-78
2023/02/19 04:56:51;;;;;;;0.40;0.20;;;;;;;4.83;100.00;100823.22;4914413;29;20044;-77
2023/02/19 04:59:17;;;;;;;0.98;0.40;;;;;;;4.85;100.00;100839.69;4916187;29;20048;-79
2023/02/19 05:01:44;;;;;;;0.30;0.20;;;;;;;4.91;100.00;100857.09;4927592;29;20122;-80
2023/02/19 05:04:10;;;;;;;0.57;0.55;;;;;;;4.94;100.00;100850.22;4913723;29;20050;-79
2023/02/19 05:06:37;;;;;;;1.08;0.20;;;;;;;4.91;100.00;100862.28;4917251;29;20039;-78
2023/02/19 05:09:04;;;;;;;0.50;0.25;;;;;;;4.84;100.00;100856.09;4914899;29;20517;-80
2023/02/19 05:11:30;;;;;;;0.30;0.30;;;;;;;4.81;100.00;100863.84;4912960;29;20035;-78
2023/02/19 05:13:57;;;;;;;0.10;0.10;;;;;;;4.79;100.00;100868.13;4910649;29;20043;-77
2023/02/19 05:16:23;;;;;;;0.20;0.20;;;;;;;4.82;100.00;100868.16;4920564;29;20055;-79
2023/02/19 05:18:50;;;;;;;1.20;0.80;;;;;;;4.79;100.00;100873.31;4930097;29;20055;-78
2023/02/19 05:21:17;;;;;;;0.20;0.20;;;;;;;4.77;100.00;100872.38;4928299;29;20043;-78
2023/02/19 05:23:44;;;;;;;0.60;0.20;;;;;;;4.74;100.00;100872.34;4911905;29;20524;-77
2023/02/19 05:26:20;;;;;;;0.22;0.20;;;;;;;4.71;100.00;100877.47;4917975;29;20054;-77
2023/02/19 05:28:52;;;;;;;1.00;0.22;;;;;;;4.66;100.00;100872.19;4913774;29;20111;-77
2023/02/19 05:31:19;;;;;;;0.10;0.10;;;;;;;4.57;100.00;100879.81;4897513;29;20067;-80
2023/02/19 05:33:49;;;;;;;0.10;0.10;;;;;;;4.53;100.00;100886.63;4914378;29;20047;-80
2023/02/19 05:36:17;;;;;;;0.30;0.30;;;;;;;4.52;100.00;100904.75;4917151;29;20043;-82
2023/02/19 05:38:44;;;;;;;1.98;0.30;;;;;;;4.38;100.00;100904.47;4915303;29;20075;-79
2023/02/19 05:41:17;;;;;;;0.20;0.20;;;;;;;4.29;100.00;100908.63;4916241;29;20479;-78
2023/02/19 05:43:46;;;;;;;0.47;0.30;;;;;;;4.19;100.00;100906.69;4924278;29;20048;-77
2023/02/19 05:46:16;;;;;;;0.20;0.20;;;;;;;4.17;100.00;100917.88;4911480;29;20052;-76
2023/02/19 05:48:43;;;;;;;0.82;0.35;;;;;;;4.18;100.00;100923.06;4906065;29;20146;-76
2023/02/19 05:51:14;;;;;;;0.47;0.40;;;;;;;4.22;100.00;100927.47;4893035;29;20056;-78
2023/02/19 05:53:42;;;;;;;1.00;0.70;;;;;;;4.15;100.00;100935.97;4911522;29;20055;-80
2023/02/19 05:56:41;;;;;;;1.23;0.50;;;;;;;4.04;100.00;100946.09;4906522;29;20108;-79
2023/02/19 05:59:14;;;;;;;1.25;0.40;;;;;;;4.01;100.00;100946.03;4915007;29;20048;-78
2023/02/19 06:01:41;;;;;;;0.53;0.40;;;;;;;4.00;100.00;100956.34;4912642;29;20062;-79
2023/02/19 06:04:10;;;;;;;1.92;0.40;;;;;;;4.02;100.00;100959.88;4898137;29;20369;-78
2023/02/19 06:06:36;;;;;;;0.65;0.43;;;;;;;4.03;100.00;100966.78;4915048;29;20059;-76
2023/02/19 06:09:05;;;;;;;2.22;0.73;;;;;;;4.01;100.00;100974.50;4915516;29;20127;-80
2023/02/19 06:11:31;;;;;;;0.45;0.45;;;;;;;4.07;100.00;100994.53;4918370;29;20051;-76
2023/02/19 06:13:58;;;;;;;1.40;1.00;;;;;;;3.95;100.00;101000.28;4917858;29;20058;-78
2023/02/19 06:16:24;;;;;;;1.10;0.50;;;;;;;3.81;100.00;101013.78;4915310;29;20059;-76
2023/02/19 06:18:51;;;;;;;0.63;0.50;;;;;;;3.66;100.00;101020.28;4921729;29;20048;-76
2023/02/19 06:21:18;;;;;;;1.02;0.30;;;;;;;3.56;100.00;101021.75;4911222;29;20059;-76
2023/02/19 06:23:45;;;;;;;0.80;0.20;;;;;;;3.42;100.00;101029.19;4896024;29;20051;-77
2023/02/19 06:26:20;;;;;;;2.83;0.60;;;;;;;3.31;100.00;101026.28;4901059;29;20080;-80
2023/02/19 06:28:50;;;;;;;1.13;0.55;;;;;;;3.23;100.00;101038.16;4908180;29;20392;-80
2023/02/19 06:31:18;;;;;;;0.57;0.30;;;;;;;3.18;100.00;101039.72;4912852;29;20502;-83
2023/02/19 06:33:45;;;;;;;0.47;0.47;;;;;;;3.10;100.00;101039.53;4913423;29;20075;-78
2023/02/19 06:36:18;;;;;;;0.55;0.55;;;;;;;3.09;100.00;101046.41;4910729;29;20115;-79
2023/02/19 06:38:45;;;;;;;1.80;0.47;;;;;;;3.11;100.00;101056.78;4912442;29;20491;-78
2023/02/19 06:41:12;;;;;;;4.15;0.40;;;;;;;3.10;100.00;101062.81;4900964;29;20581;-77
2023/02/19 06:43:39;;;;;;;0.50;0.40;;;;;;;3.07;100.00;101075.66;4895744;29;20495;-80
2023/02/19 06:46:07;;;;;;;0.63;0.57;;;;;;;3.12;100.00;101081.84;4911488;29;20087;-82
2023/02/19 06:48:35;;;;;;;1.38;0.60;;;;;;;3.06;100.00;101098.03;4928844;29;20039;-77
2023/02/19 06:51:02;;;;;;;0.40;0.40;;;;;;;3.01;100.00;101094.44;4911659;29;20048;-77
2023/02/19 06:53:29;;;;;;;3.10;0.90;;;;;;;3.01;100.00;101102.19;4907658;29;20048;-80
2023/02/19 06:55:58;;;;;;;1.45;0.65;;;;;;;3.01;100.00;101111.69;4911955;29;20040;-82
2023/02/19 06:58:25;;;;;;;0.40;0.40;;;;;;;2.95;100.00;101113.25;4912389;29;20579;-78
2023/02/19 07:00:52;;;;;;;1.05;0.77;;;;;;;2.91;100.00;101124.34;4912835;29;20060;-77
2023/02/19 07:03:19;;;;;;;1.80;1.05;;;;;;;2.87;100.00;101127.69;4908262;29;20067;-77
2023/02/19 07:05:45;;;;;;;4.22;1.40;;;;;;;2.85;100.00;101131.91;4912722;29;20040;-77
2023/02/19 07:08:12;;;;;;;0.93;0.90;;;;;;;2.88;100.00;101139.78;4913305;29;20052;-78
2023/02/19 07:10:39;;;;;;;0.88;0.88;;;;;;;2.88;100.00;101144.94;4912358;29;20119;-78
2023/02/19 07:13:05;;;;;;;1.40;1.10;;;;;;;2.94;100.00;101168.38;4914069;29;20032;-77
2023/02/19 07:15:32;;;;;;;1.13;1.02;;;;;;;3.00;100.00;101174.56;4888790;29;20104;-82
2023/02/19 07:17:59;;;;;;;1.35;0.93;;;;;;;3.05;100.00;101188.53;4917405;29;20127;-81
2023/02/19 07:20:26;;;;;;;2.42;1.27;;;;;;;3.06;100.00;101185.13;4902102;29;20491;-83
2023/02/19 07:22:52;;;;;;;1.48;1.38;;;;;;;3.10;100.00;101195.63;4910199;29;20048;-79
2023/02/19 07:25:20;;;;;;;4.32;1.02;;;;;;;3.17;100.00;101201.84;4908564;29;20048;-76
2023/02/19 07:27:58;;;;;;;1.65;1.23;;;;;;;3.21;100.00;101210.59;5146297;23;20377;-80
2023/02/19 07:30:31;;;;;;;1.15;1.05;;;;;;;3.27;100.00;101218.50;4915993;28;20416;-80
2023/02/19 07:32:58;;;;;;;1.83;1.10;;;;;;;3.31;100.00;101222.94;4940988;28;20070;-78
2023/02/19 07:35:48;;;;;;;1.15;1.02;;;;;;;3.30;100.00;101239.31;4926220;28;20070;-77
2023/02/19 07:38:19;;;;;;;1.58;1.27;;;;;;;3.28;100.00;101247.03;4932825;28;20107;-79
2023/02/19 07:40:57;;;;;;;1.55;1.40;;;;;;;3.30;100.00;101247.97;4933104;28;20058;-79
2023/02/19 07:43:25;;;;;;;3.53;2.05;;;;;;;3.35;100.00;101249.81;4943816;28;20668;-79
2023/02/19 07:45:52;;;;;;;5.45;2.35;;;;;;;3.38;100.00;101255.09;4927128;29;20391;-79
2023/02/19 07:48:19;;;;;;;2.20;1.83;;;;;;;3.44;100.00;101243.22;4943259;28;20051;-76
2023/02/19 07:50:53;;;;;;;2.92;2.20;;;;;;;3.51;100.00;101253.72;4910900;29;20062;-77
2023/02/19 07:53:21;;;;;;;2.38;2.17;;;;;;;3.54;100.00;101254.69;4934798;28;20039;-79
2023/02/19 07:55:47;;;;;;;2.67;2.30;;;;;;;3.64;100.00;101261.03;4929750;28;20043;-79
2023/02/19 07:58:14;;;;;;;3.25;2.58;;;;;;;3.61;100.00;101264.41;4947196;28;20042;-78
2023/02/19 08:00:40;;;;;;;4.93;2.35;;;;;;;3.65;100.00;101275.75;4929668;29;20050;-81
2023/02/19 08:03:06;;;;;;;3.63;2.47;;;;;;;3.69;100.00;101276.69;4928764;28;20051;-77
2023/02/19 08:05:42;;;;;;;3.15;2.30;;;;;;;3.81;100.00;101282.25;4931356;28;20082;-79
2023/02/19 08:08:17;;;;;;;2.42;2.08;;;;;;;3.89;100.00;101287.66;4942312;28;20043;-80
2023/02/19 08:13:30;;;;;;;3.08;2.22;;;;;;;3.97;100.00;101284.41;4932312;28;20031;-77
2023/02/19 08:16:03;;;;;;;3.58;2.67;;;;;;;3.97;100.00;101292.19;4927636;29;20059;-79
2023/02/19 08:18:32;;;;;;;2.97;2.53;;;;;;;3.96;100.00;101303.41;4925729;28;20044;-76
2023/02/19 08:20:59;;;;;;;3.97;3.13;;;;;;;3.97;100.00;101305.13;4942335;28;20790;-79
2023/02/19 08:23:28;;;;;;;3.75;2.90;;;;;;;3.97;100.00;101305.13;4939471;28;20066;-82
2023/02/19 08:25:58;;;;;;;4.70;3.83;;;;;;;3.95;100.00;101308.50;4940321;28;20104;-77
2023/02/19 08:28:25;;;;;;;2.60;2.10;;;;;;;3.91;100.00;101302.41;4922358;28;20063;-78
2023/02/19 08:30:53;;;;;;;12.45;5.55;;;;;;;3.97;100.00;101314.63;4906652;29;20147;-76
2023/02/19 08:33:21;;;;;;;11.45;5.38;;;;;;;4.09;100.00;101327.06;4903582;29;20040;-81
2023/02/19 08:35:48;;;;;;;13.93;6.32;;;;;;;4.21;100.00;101331.69;4892978;29;20048;-77
2023/02/19 08:38:15;;;;;;;10.65;4.97;;;;;;;4.29;100.00;101335.41;4894002;29;20488;-78
2023/02/19 08:40:42;;;;;;;12.43;5.13;;;;;;;4.33;100.00;101323.38;4904557;29;20103;-79
2023/02/19 08:43:12;;;;;;;12.65;5.22;;;;;;;4.44;100.00;101325.44;4906842;29;20063;-77
2023/02/19 08:45:42;;;;;;;13.68;6.50;;;;;;;4.55;100.00;101333.53;4903705;29;20109;-77
2023/02/19 08:48:10;;;;;;;6.30;4.00;;;;;;;4.53;100.00;101321.34;4906736;29;20048;-78
2023/02/19 08:50:38;;;;;;;7.13;3.83;;;;;;;4.52;100.00;101323.03;4923235;29;20040;-78
2023/02/19 08:53:06;;;;;;;8.20;4.68;;;;;;;4.52;100.00;101336.00;4905150;29;20071;-79
2023/02/19 08:55:34;;;;;;;6.78;4.20;;;;;;;4.45;100.00;101334.97;4903053;29;20040;-80
2023/02/19 08:58:01;;;;;;;6.30;3.75;;;;;;;4.44;100.00;101333.22;4888260;29;20049;-77
2023/02/19 09:00:27;;;;;;;4.60;3.78;;;;;;;4.40;100.00;101338.28;4905624;29;20051;-79
2023/02/19 09:02:54;;;;;;;5.40;3.58;;;;;;;4.40;100.00;101339.16;4925151;29;20526;-80
2023/02/19 09:05:20;;;;;;;10.18;5.65;;;;;;;4.32;100.00;101338.06;4896847;29;20058;-77
2023/02/19 09:07:47;;;;;;;7.95;4.50;;;;;;;4.32;100.00;101345.84;4910247;29;20451;-79
2023/02/19 09:10:14;;;;;;;5.13;3.30;;;;;;;4.27;100.00;101352.63;4914310;29;20036;-77
2023/02/19 09:12:41;;;;;;;3.35;2.58;;;;;;;4.33;100.00;101354.50;4916695;29;20056;-81
2023/02/19 09:15:09;;;;;;;13.20;5.95;;;;;;;4.56;100.00;101366.41;4905643;29;20062;-80
2023/02/19 09:17:35;;;;;;;11.95;6.10;;;;;;;4.58;100.00;101376.81;4924632;29;20056;-77
2023/02/19 09:20:02;;;;;;;12.38;5.68;;;;;;;4.60;100.00;101391.56;4892933;29;20044;-80
2023/02/19 09:22:29;;;;;;;14.52;7.75;;;;;;;4.82;100.00;101386.94;4922067;29;20063;-80
2023/02/19 09:24:55;;;;;;;12.35;7.05;;;;;;;5.18;100.00;101385.28;4905163;29;20088;-76
2023/02/19 09:27:23;;;;;;;6.53;4.78;;;;;;;5.39;100.00;101390.13;4908764;29;20059;-81
2023/02/19 09:29:50;;;;;;;6.88;4.05;;;;;;;5.48;100.00;101392.94;4897885;29;20059;-80
2023/02/19 09:32:16;;;;;;;10.02;6.38;;;;;;;5.51;100.00;101398.19;4886884;29;20060;-86
2023/02/19 09:34:43;;;;;;;19.02;10.32;;;;;;;5.62;100.00;101401.91;4900423;29;20044;-83
2023/02/19 09:37:09;;;;;;;12.75;6.53;;;;;;;5.67;100.00;101401.13;4898029;29;20148;-81
2023/02/19 09:39:36;;;;;;;7.53;4.60;;;;;;;5.64;100.00;101399.34;4923293;29;20047;-78
2023/02/19 09:42:17;;;;;;;8.40;5.35;;;;;;;5.69;100.00;101391.69;4912161;29;20435;-77
2023/02/19 09:44:50;;;;;;;8.13;4.07;;;;;;;5.64;100.00;101407.16;4904819;29;20059;-81
2023/02/19 09:47:26;;;;;;;5.72;4.05;;;;;;;5.56;100.00;101404.38;4905543;29;20052;-78
2023/02/19 09:49:59;;;;;;;7.72;3.85;;;;;;;5.64;100.00;101417.53;4920845;29;20048;-79
2023/02/19 09:52:33;;;;;;;9.52;5.03;;;;;;;5.76;100.00;101419.53;4905269;29;20225;-79
2023/02/19 09:55:09;;;;;;;;;;;;;;;5.80;100.00;101417.06;4926935;29;20040;-77
2023/02/19 09:57:36;;;;;;;3.90;2.95;;;;;;;5.93;100.00;101423.41;4904171;29;19958;-79
2023/02/19 10:00:32;;;;;;;5.95;3.80;;;;;;;5.94;100.00;101427.78;4892167;29;20059;-81
2023/02/19 10:03:11;;;;;;;3.85;2.80;;;;;;;6.01;100.00;101439.22;4901421;29;20044;-79
2023/02/19 10:05:39;;;;;;;3.00;2.80;;;;;;;6.22;100.00;101448.31;4899431;29;20083;-81
2023/02/19 10:08:13;;;;;;;4.55;3.40;;;;;;;6.27;100.00;101459.69;4907275;29;20048;-80
2023/02/19 10:10:40;;;;;;;4.43;3.17;;;;;;;6.14;100.00;101476.75;4888099;29;20044;-77
2023/02/19 10:13:24;;;;;;;8.95;3.75;;;;;;;6.28;100.00;101469.25;4900117;29;20045;-77
2023/02/19 10:15:54;;;;;;;5.20;3.05;;;;;;;6.51;100.00;101471.47;4901688;29;20044;-78
2023/02/19 10:18:28;;;;;;;5.88;2.85;;;;;;;6.86;100.00;101481.72;4901738;29;20128;-78
2023/02/19 10:20:58;;;;;;;3.55;2.45;;;;;;;7.03;100.00;101489.88;4904725;29;20036;-79
2023/02/19 10:23:25;;;;;;;3.17;1.95;;;;;;;6.92;98.44;101505.25;4908509;29;20049;-77
2023/02/19 10:26:00;;;;;;;2.03;1.83;;;;;;;6.64;98.42;101515.13;4908193;29;20925;-80
2023/02/19 10:30:34;;;;;;;4.50;2.72;;;;;;;6.87;98.18;101515.59;5139247;27;20401;-79
2023/02/19 10:33:11;;;;;;;3.47;1.17;;;;;;;7.00;95.49;101518.41;5113313;27;20063;-75
2023/02/19 10:35:52;;;;;;;2.47;1.70;;;;;;;6.88;95.81;101529.47;5097285;28;20043;-78
2023/02/19 10:38:24;;;;;;;2.13;1.65;;;;;;;6.69;95.31;101531.69;5113250;27;20047;-79
2023/02/19 10:41:04;;;;;;;4.70;2.08;;;;;;;6.71;95.33;101536.94;5102982;28;20281;-78
2023/02/19 10:43:36;;;;;;;3.30;1.77;;;;;;;6.93;96.14;101538.25;5093262;28;20123;-80
2023/02/19 10:46:16;;;;;;;3.25;1.73;;;;;;;7.33;94.09;101538.16;5112589;27;20036;-79
2023/02/19 10:49:00;;;;;;;5.18;1.73;;;;;;;7.66;91.85;101531.81;5097840;28;20043;-82
2023/02/19 10:51:39;;;;;;;3.25;2.03;;;;;;;7.83;90.04;101538.16;5100888;28;20134;-80
2023/02/19 10:54:19;;;;;;;4.75;2.00;;;;;;;7.93;88.70;101531.38;5109356;27;20044;-77
2023/02/19 10:56:47;;;;;;;1.92;1.65;;;;;;;7.87;86.10;101528.66;5102486;28;20050;-78
2023/02/19 10:59:25;;;;;;;2.60;1.63;;;;;;;7.70;88.59;101531.00;5102605;27;20040;-77
2023/02/19 11:02:01;;;;;;;3.33;2.15;;;;;;;7.25;88.89;101533.69;5118023;27;20114;-78
2023/02/19 11:04:35;;;;;;;3.88;2.72;;;;;;;6.91;90.11;101539.94;5111671;27;20071;-79
2023/02/19 11:07:17;;;;;;;8.15;4.93;;;;;;;7.03;90.64;101536.72;5086079;28;20616;-78
2023/02/19 11:09:47;;;;;;;4.55;3.95;;;;;;;7.41;90.22;101539.19;5099536;28;20400;-80
2023/02/19 11:12:23;;;;;;;10.65;5.70;;;;;;;7.85;87.78;101538.19;5094673;27;20047;-81
2023/02/19 11:14:52;;;;;;;5.22;3.25;;;;;;;7.95;84.61;101537.47;5086879;28;20067;-78
2023/02/19 11:17:29;;;;;;;5.28;2.55;;;;;;;7.78;85.26;101535.50;5097390;28;20044;-78
2023/02/19 11:19:59;;;;;;;5.85;1.55;;;;;;;7.75;86.93;101539.78;5095759;28;20505;-78
2023/02/19 11:22:39;;;;;;;2.97;1.40;;;;;;;7.53;86.50;101556.75;5104110;27;20055;-78
2023/02/19 11:25:15;;;;;;;3.60;1.50;;;;;;;7.17;86.28;101556.09;5112216;28;20040;-83
2023/02/19 11:28:24;;;;;;;6.53;1.65;;;;;;;6.89;87.70;101565.94;5118588;27;20038;-81
2023/02/19 11:30:51;;;;;;;1.77;1.40;;;;;;;6.92;88.94;101575.53;5120144;27;20046;-77
2023/02/19 11:33:26;;;;;;;3.38;2.33;;;;;;;7.06;86.05;101568.03;5100584;27;20066;-80
2023/02/19 11:36:15;;;;;;;3.00;1.35;;;;;;;7.48;87.17;101556.66;5116405;28;20032;-81
2023/02/19 11:38:42;;;;;;;1.80;1.45;;;;;;;7.59;84.59;101549.94;5103307;28;20487;-78
2023/02/19 11:41:22;;;;;;;2.55;1.58;;;;;;;7.51;84.09;101551.53;5075445;28;20047;-78
2023/02/19 11:44:15;;;;;;;3.85;2.10;;;;;;;7.34;84.21;101556.41;5101200;27;20036;-80
2023/02/19 11:47:29;;;;;;;2.58;1.10;;;;;;;7.20;84.83;101566.56;5091036;28;20693;-79
2023/02/19 11:50:19;;;;;;;3.85;0.73;;;;;;;7.12;81.88;101562.94;5094232;28;20116;-79
2023/02/19 11:53:21;;;;;;;1.38;0.88;;;;;;;7.26;81.95;101563.19;5093475;28;20044;-81
2023/02/19 11:56:11;;;;;;;1.98;0.60;;;;;;;7.60;81.70;101558.59;5089277;28;20093;-80
2023/02/19 11:58:59;;;;;;;1.15;0.70;;;;;;;7.90;80.44;101560.00;5099158;28;20048;-79
2023/02/19 12:02:11;;;;;;;4.72;0.98;;;;;;;8.06;79.53;101555.94;5084180;28;20071;-81
2023/02/19 12:05:06;;;;;;;1.17;0.43;;;;;;;8.07;75.98;101550.72;5085249;28;20047;-79
2023/02/19 12:08:27;;;;;;;3.80;0.73;;;;;;;8.15;76.33;101550.84;5090474;28;20084;-80
2023/02/19 12:11:38;;;;;;;4.40;0.93;;;;;;;8.20;75.76;101540.47;5004398;28;20069;-80
2023/02/19 12:14:30;;;;;;;1.55;0.90;;;;;;;8.04;75.18;101537.63;5099692;27;20039;-78
2023/02/19 12:17:48;;;;;;;1.65;0.85;;;;;;;7.84;78.61;101544.28;5085176;27;20504;-81
2023/02/19 12:20:33;;;;;;;2.05;0.85;;;;;;;7.64;78.35;101546.50;5101247;27;20048;-78